Time;durP1;ratioP1;P1;durP2;ratioP2;P2;SDS_P1;SDS_P2;PMS_P1;PMS_P2;Temp;Humidity;BMP_temperature;BMP_pressure;BME280_temperature;BME280_humidity;BME280_pressure;Samples;Min_cycle;Max_cycle;Signal;HPM_P1;HPM_P2
2022/06/19 00:00:35;;;;;;;;;14.25;14.25;;;;;-142.59;100.00;56100.38;5075122;28;49679;-65
2022/06/19 00:03:03;;;;;;;;;17.25;16.75;;;;;-142.59;100.00;56100.38;5075072;28;49963;-65
2022/06/19 00:05:30;;;;;;;;;16.50;12.50;;;;;-142.59;100.00;56100.38;5074832;28;50708;-64
2022/06/19 00:07:56;;;;;;;;;14.00;13.00;;;;;-142.59;100.00;56100.38;5074656;28;49723;-65
2022/06/19 00:10:22;;;;;;;;;13.75;11.75;;;;;-142.59;100.00;56100.38;5074199;28;50328;-65
2022/06/19 00:12:47;;;;;;;;;13.50;11.75;;;;;-142.59;100.00;56100.38;5075056;28;49913;-65
2022/06/19 00:15:12;;;;;;;;;12.75;12.75;;;;;-142.59;100.00;56100.38;5074601;28;50529;-65
2022/06/19 00:17:39;;;;;;;;;11.75;11.75;;;;;-142.59;100.00;56100.38;5074766;28;49732;-64
2022/06/19 00:20:05;;;;;;;;;14.25;12.00;;;;;-142.59;100.00;56100.38;5074806;28;49691;-65
2022/06/19 00:22:30;;;;;;;;;11.50;11.50;;;;;-142.59;100.00;56100.38;5074611;28;49511;-64
2022/06/19 00:24:56;;;;;;;;;11.00;9.50;;;;;-142.59;100.00;56100.38;5074300;28;49743;-64
2022/06/19 00:27:23;;;;;;;;;13.00;10.50;;;;;-142.59;100.00;56100.38;5074619;28;49751;-65
2022/06/19 00:29:49;;;;;;;;;11.25;11.25;;;;;-142.59;100.00;56100.38;5074612;28;49708;-64
2022/06/19 00:32:14;;;;;;;;;10.00;9.00;;;;;-142.59;100.00;56100.38;5074693;28;49965;-65
2022/06/19 00:34:40;;;;;;;;;9.25;8.50;;;;;-142.59;100.00;56100.38;5074186;28;50449;-64
2022/06/19 00:37:05;;;;;;;;;12.00;10.50;;;;;-142.59;100.00;56100.38;5074411;28;49836;-65
2022/06/19 00:39:39;;;;;;;;;15.50;9.00;;;;;-142.59;100.00;56100.38;5074027;28;49854;-64
2022/06/19 00:42:08;;;;;;;;;10.25;9.00;;;;;-142.59;100.00;56100.38;5074580;28;50002;-64
2022/06/19 00:44:34;;;;;;;;;16.75;11.25;;;;;-142.59;100.00;56100.38;5074188;28;50404;-65
2022/06/19 00:47:08;;;;;;;;;8.00;8.00;;;;;-142.59;100.00;56100.38;5089874;27;49819;-65
2022/06/19 00:49:41;;;;;;;;;8.25;4.75;;;;;-142.59;100.00;56100.38;5074404;28;49835;-64
2022/06/19 00:52:12;;;;;;;;;9.50;9.50;;;;;-142.59;100.00;56100.38;5074163;28;50096;-64
2022/06/19 00:54:59;;;;;;;;;9.75;8.25;;;;;-142.59;100.00;56100.38;5073727;28;49855;-65
2022/06/19 00:57:27;;;;;;;;;8.50;7.25;;;;;-142.59;100.00;56100.38;5074083;27;49698;-65
2022/06/19 01:00:08;;;;;;;;;13.00;12.00;;;;;-142.59;100.00;56100.38;5074195;28;49858;-65
2022/06/19 01:02:34;;;;;;;;;12.25;10.75;;;;;-142.59;100.00;56100.38;5074061;28;49465;-64
2022/06/19 01:05:00;;;;;;;;;15.25;14.00;;;;;-142.59;100.00;56100.38;5073949;28;49715;-65
2022/06/19 01:07:26;;;;;;;;;12.00;11.50;;;;;-142.59;100.00;56100.38;5073800;28;49779;-64
2022/06/19 01:09:52;;;;;;;;;14.50;11.25;;;;;-142.59;100.00;56100.38;5073632;28;49817;-65
2022/06/19 01:12:19;;;;;;;;;7.50;5.25;;;;;-142.59;100.00;56100.38;5074166;28;49778;-64
2022/06/19 01:14:47;;;;;;;;;17.00;13.50;;;;;-142.59;100.00;56100.38;5073528;28;50425;-65
2022/06/19 01:17:16;;;;;;;;;17.25;15.00;;;;;-142.59;100.00;56100.38;5073788;28;49901;-65
2022/06/19 01:19:43;;;;;;;;;15.50;14.50;;;;;-142.59;100.00;56100.38;5073949;28;49903;-64
2022/06/19 01:22:38;;;;;;;;;15.25;12.00;;;;;-142.59;100.00;56100.38;5073981;28;49774;-64
2022/06/19 01:25:10;;;;;;;;;17.75;16.00;;;;;-142.59;100.00;56100.38;5073298;28;49725;-65
2022/06/19 01:30:30;;;;;;;;;17.50;15.25;;;;;-142.59;100.00;56100.38;5073835;28;49791;-65
2022/06/19 01:32:58;;;;;;;;;12.75;11.75;;;;;-142.59;100.00;56100.38;5073905;28;49855;-65
2022/06/19 01:35:28;;;;;;;;;14.75;12.75;;;;;-142.59;100.00;56100.38;5073562;28;49805;-65
2022/06/19 01:37:55;;;;;;;;;25.25;20.00;;;;;-142.59;100.00;56100.38;5073233;28;49724;-64
2022/06/19 01:40:29;;;;;;;;;11.50;11.50;;;;;-142.59;100.00;56100.38;5088665;27;49838;-64
2022/06/19 01:42:55;;;;;;;;;9.50;8.00;;;;;-142.59;100.00;56100.38;5073685;28;49776;-65
2022/06/19 01:45:20;;;;;;;;;16.00;12.75;;;;;-142.59;100.00;56100.38;5089037;27;51149;-64
2022/06/19 01:47:46;;;;;;;;;12.50;11.00;;;;;-142.59;100.00;56100.38;5073559;28;49733;-64
2022/06/19 01:50:15;;;;;;;;;17.50;17.50;;;;;-142.59;100.00;56100.38;5073430;28;49937;-64
2022/06/19 01:52:41;;;;;;;;;14.25;13.25;;;;;-142.59;100.00;56100.38;5073572;28;50001;-69
2022/06/19 01:55:11;;;;;;;;;19.25;15.25;;;;;-142.59;100.00;56100.38;5072896;28;50693;-65
2022/06/19 01:57:42;;;;;;;;;14.75;14.25;;;;;-142.59;100.00;56100.38;5073310;28;49753;-65
2022/06/19 02:00:12;;;;;;;;;17.00;15.75;;;;;-142.59;100.00;56100.38;5073476;28;49717;-66
2022/06/19 02:02:40;;;;;;;;;17.50;15.00;;;;;-142.59;100.00;56100.38;5073496;28;49669;-64
2022/06/19 02:05:06;;;;;;;;;16.25;13.75;;;;;-142.59;100.00;56100.38;5073096;28;49536;-65
2022/06/19 02:07:32;;;;;;;;;18.50;14.00;;;;;-142.59;100.00;56100.38;5073009;28;49847;-64
2022/06/19 02:10:00;;;;;;;;;17.25;15.00;;;;;-142.59;100.00;56100.38;5073101;28;49795;-66
2022/06/19 02:12:27;;;;;;;;;17.75;16.75;;;;;-142.59;100.00;56100.38;5073286;28;49891;-67
2022/06/19 02:14:53;;;;;;;;;19.00;18.25;;;;;-142.59;100.00;56100.38;5074965;28;49727;-66
2022/06/19 02:17:42;;;;;;;;;17.75;15.00;;;;;-142.59;100.00;56100.38;5076652;28;49760;-65
2022/06/19 02:20:10;;;;;;;;;21.00;18.75;;;;;-142.59;100.00;56100.38;5076681;28;49798;-65
2022/06/19 02:22:35;;;;;;;;;14.50;14.25;;;;;-142.59;100.00;56100.38;5076674;28;49664;-66
2022/06/19 02:25:02;;;;;;;;;15.00;12.25;;;;;-142.59;100.00;56100.38;5076087;28;49653;-66
2022/06/19 02:27:30;;;;;;;;;16.25;15.00;;;;;-142.59;100.00;56100.38;5076603;28;49803;-66
2022/06/19 02:29:56;;;;;;;;;16.25;12.50;;;;;-142.59;100.00;56100.38;5076572;28;49593;-66
2022/06/19 02:32:25;;;;;;;;;17.50;14.00;;;;;-142.59;100.00;56100.38;5076711;28;49578;-66
2022/06/19 02:34:52;;;;;;;;;14.75;14.00;;;;;-142.59;100.00;56100.38;5076350;28;49781;-65
2022/06/19 02:37:24;;;;;;;;;17.25;14.50;;;;;-142.59;100.00;56100.38;5076412;28;49752;-66
2022/06/19 02:40:05;;;;;;;;;9.00;6.50;;;;;-142.59;100.00;56100.38;5076094;28;49902;-66
2022/06/19 02:42:42;;;;;;;;;17.50;16.00;;;;;-142.59;100.00;56100.38;5076533;28;49802;-65
2022/06/19 02:45:18;;;;;;;;;13.00;11.75;;;;;-142.59;100.00;56100.38;5076061;28;50544;-66
2022/06/19 02:47:44;;;;;;;;;13.75;12.75;;;;;-142.59;100.00;56100.38;5076268;28;49794;-66
2022/06/19 02:50:18;;;;;;;;;13.25;11.25;;;;;-142.59;100.00;56100.38;5076275;28;49838;-66
2022/06/19 02:52:44;;;;;;;;;14.25;11.25;;;;;-142.59;100.00;56100.38;5075975;28;49875;-64
2022/06/19 02:55:10;;;;;;;;;12.50;12.00;;;;;-142.59;100.00;56100.38;5075917;28;49667;-66
2022/06/19 02:57:36;;;;;;;;;15.75;12.00;;;;;-142.59;100.00;56100.38;5075974;28;49718;-65
2022/06/19 03:00:03;;;;;;;;;9.00;8.25;;;;;-142.59;100.00;56100.38;5057868;28;49761;-65
2022/06/19 03:02:28;;;;;;;;;14.50;12.25;;;;;-142.59;100.00;56100.38;5057848;28;49824;-65
2022/06/19 03:04:57;;;;;;;;;13.25;9.00;;;;;-142.59;100.00;56100.38;5075698;28;51259;-65
2022/06/19 03:07:25;;;;;;;;;13.50;11.00;;;;;-142.59;100.00;56100.38;5075914;28;49695;-68
2022/06/19 03:09:50;;;;;;;;;11.50;10.50;;;;;-142.59;100.00;56100.38;5075529;28;50101;-65
2022/06/19 03:12:16;;;;;;;;;10.25;8.50;;;;;-142.59;100.00;56100.38;5075943;28;49927;-66
2022/06/19 03:14:44;;;;;;;;;13.00;11.00;;;;;-142.59;100.00;56100.38;5075519;28;49724;-65
2022/06/19 03:17:13;;;;;;;;;15.50;14.25;;;;;-142.59;100.00;56100.38;5075704;28;49726;-66
2022/06/19 03:19:39;;;;;;;;;18.00;13.50;;;;;-142.59;100.00;56100.38;5075707;28;49807;-66
2022/06/19 03:22:04;;;;;;;;;13.50;12.00;;;;;-142.59;100.00;56100.38;5075881;28;49816;-67
2022/06/19 03:24:29;;;;;;;;;21.00;15.75;;;;;-142.59;100.00;56100.38;5075051;28;49553;-66
2022/06/19 03:26:55;;;;;;;;;15.00;11.75;;;;;-142.59;100.00;56100.38;5075639;28;49648;-66
2022/06/19 03:29:20;;;;;;;;;13.25;12.00;;;;;-142.59;100.00;56100.38;5075240;28;49901;-66
2022/06/19 03:31:45;;;;;;;;;18.75;15.50;;;;;-142.59;100.00;56100.38;5075745;28;50123;-66
2022/06/19 03:34:11;;;;;;;;;10.50;10.50;;;;;-142.59;100.00;56100.38;5074972;28;51359;-66
2022/06/19 03:36:36;;;;;;;;;16.00;15.00;;;;;-142.59;100.00;56100.38;5075518;28;49711;-66
2022/06/19 03:39:02;;;;;;;;;23.00;18.50;;;;;-142.59;100.00;56100.38;5075355;28;49826;-66
2022/06/19 03:41:27;;;;;;;;;16.00;15.00;;;;;-142.59;100.00;56100.38;5075533;28;50108;-66
2022/06/19 03:43:52;;;;;;;;;20.50;18.25;;;;;-142.59;100.00;56100.38;5075329;28;49685;-66
2022/06/19 03:46:19;;;;;;;;;19.25;17.00;;;;;-142.59;100.00;56100.38;5075291;28;49755;-66
2022/06/19 03:48:51;;;;;;;;;21.75;17.25;;;;;-142.59;100.00;56100.38;5075208;28;49598;-65
2022/06/19 03:51:22;;;;;;;;;15.75;15.75;;;;;-142.59;100.00;56100.38;5075408;28;49824;-65
2022/06/19 03:53:49;;;;;;;;;13.75;13.25;;;;;-142.59;100.00;56100.38;5074641;28;50846;-65
2022/06/19 03:56:18;;;;;;;;;19.00;15.50;;;;;-142.59;100.00;56100.38;5075183;28;49921;-66
2022/06/19 03:58:47;;;;;;;;;13.75;13.75;;;;;-142.59;100.00;56100.38;5075272;28;49819;-65
2022/06/19 04:01:20;;;;;;;;;18.25;17.00;;;;;-142.59;100.00;56100.38;5075179;28;49679;-66
2022/06/19 04:03:47;;;;;;;;;16.00;13.50;;;;;-142.59;100.00;56100.38;5074753;28;49607;-66
2022/06/19 04:06:15;;;;;;;;;21.50;14.50;;;;;-142.59;100.00;56100.38;5074996;28;49642;-65
2022/06/19 04:08:41;;;;;;;;;17.25;15.50;;;;;-142.59;100.00;56100.38;5074539;28;49652;-67
2022/06/19 04:11:07;;;;;;;;;15.75;13.75;;;;;-142.59;100.00;56100.38;5075100;28;49905;-65
2022/06/19 04:13:34;;;;;;;;;16.00;14.00;;;;;-142.59;100.00;56100.38;5074706;28;50652;-65
2022/06/19 04:16:00;;;;;;;;;16.50;15.00;;;;;-142.59;100.00;56100.38;5074819;28;49719;-66
2022/06/19 04:18:26;;;;;;;;;15.00;14.25;;;;;-142.59;100.00;56100.38;5074953;28;50040;-66
2022/06/19 04:20:51;;;;;;;;;15.50;15.25;;;;;-142.59;100.00;56100.38;5074798;28;50002;-66
2022/06/19 04:23:17;;;;;;;;;13.75;11.75;;;;;-142.59;100.00;56100.38;5074223;28;51313;-67
2022/06/19 04:25:44;;;;;;;;;15.00;13.75;;;;;-142.59;100.00;56100.38;5091313;27;49944;-68
2022/06/19 04:28:10;;;;;;;;;20.75;19.00;;;;;-142.59;100.00;56100.38;5094977;27;49613;-67
2022/06/19 04:30:36;;;;;;;;;18.75;17.50;;;;;-142.59;100.00;56100.38;5095375;27;49708;-66
2022/06/19 04:33:02;;;;;;;;;18.75;16.50;;;;;-142.59;100.00;56100.38;5095063;27;50535;-65
2022/06/19 04:35:27;;;;;;;;;14.50;13.50;;;;;-142.59;100.00;56100.38;5094975;27;49553;-65
2022/06/19 04:37:53;;;;;;;;;13.25;12.75;;;;;-142.59;100.00;56100.38;5093755;27;49782;-65
2022/06/19 04:40:18;;;;;;;;;18.00;13.50;;;;;-142.59;100.00;56100.38;5094618;27;49886;-66
2022/06/19 04:42:43;;;;;;;;;10.50;10.50;;;;;-142.59;100.00;56100.38;5094634;27;50446;-65
2022/06/19 04:45:10;;;;;;;;;12.00;10.75;;;;;-142.59;100.00;56100.38;5094815;27;49692;-66
2022/06/19 04:47:35;;;;;;;;;10.75;10.25;;;;;-142.59;100.00;56100.38;5094825;27;49872;-69
2022/06/19 04:50:01;;;;;;;;;13.25;12.75;;;;;-142.59;100.00;56100.38;5095091;27;49743;-67
2022/06/19 04:52:26;;;;;;;;;9.25;7.75;;;;;-142.59;100.00;56100.38;5083593;27;49663;-65
2022/06/19 04:54:51;;;;;;;;;18.75;9.25;;;;;-142.59;100.00;56100.38;5073905;27;49649;-67
2022/06/19 04:57:17;;;;;;;;;10.75;10.75;;;;;-142.59;100.00;56100.38;5078518;27;49887;-67
2022/06/19 04:59:43;;;;;;;;;10.00;9.50;;;;;-142.59;100.00;56100.38;5094411;27;49868;-68
2022/06/19 05:02:12;;;;;;;;;10.25;9.50;;;;;-142.59;100.00;56100.38;5094448;27;50313;-67
2022/06/19 05:04:37;;;;;;;;;8.75;7.75;;;;;-142.59;100.00;56100.38;5086954;27;51089;-67
2022/06/19 05:07:03;;;;;;;;;12.25;9.50;;;;;-142.59;100.00;56100.38;5084094;27;49782;-68
2022/06/19 05:09:28;;;;;;;;;10.25;10.00;;;;;-142.59;100.00;56100.38;5094393;27;49712;-67
2022/06/19 05:11:53;;;;;;;;;11.00;8.50;;;;;-142.59;100.00;56100.38;5094171;27;49822;-69
2022/06/19 05:14:19;;;;;;;;;7.00;6.00;;;;;-142.59;100.00;56100.38;5093656;27;49642;-67
2022/06/19 05:16:44;;;;;;;;;11.00;10.00;;;;;-142.59;100.00;56100.38;5094367;27;50240;-68
2022/06/19 05:19:10;;;;;;;;;9.00;8.75;;;;;-142.59;100.00;56100.38;5094136;27;49634;-67
2022/06/19 05:21:35;;;;;;;;;7.00;5.75;;;;;-142.59;100.00;56100.38;5094327;27;50631;-69
2022/06/19 05:24:01;;;;;;;;;6.75;6.50;;;;;-142.59;100.00;56100.38;5092220;27;49592;-67
2022/06/19 05:26:30;;;;;;;;;8.00;6.75;;;;;-142.59;100.00;56100.38;5094141;27;49807;-66
2022/06/19 05:28:56;;;;;;;;;8.00;6.00;;;;;-142.59;100.00;56100.38;5094188;27;49754;-66
2022/06/19 05:31:22;;;;;;;;;6.50;6.00;;;;;-142.59;100.00;56100.38;5093649;27;49775;-67
2022/06/19 05:33:48;;;;;;;;;7.00;6.75;;;;;-142.59;100.00;56100.38;5094076;27;49625;-67
2022/06/19 05:36:13;;;;;;;;;5.75;5.00;;;;;-142.59;100.00;56100.38;5093897;27;49733;-66
2022/06/19 05:38:39;;;;;;;;;13.00;9.00;;;;;-142.59;100.00;56100.38;5083866;27;49698;-67
2022/06/19 05:41:05;;;;;;;;;4.00;4.00;;;;;-142.59;100.00;56100.38;5073478;28;49958;-66
2022/06/19 05:43:33;;;;;;;;;5.00;5.00;;;;;-142.59;100.00;56100.38;5073593;28;49809;-68
2022/06/19 05:46:01;;;;;;;;;8.25;6.75;;;;;-142.59;100.00;56100.38;5074778;27;49660;-67
2022/06/19 05:48:28;;;;;;;;;4.00;4.00;;;;;-142.59;100.00;56100.38;5073706;28;49648;-68
2022/06/19 05:51:24;;;;;;;;;9.00;6.00;;;;;-142.59;100.00;56100.38;5076981;28;50570;-68
2022/06/19 05:53:52;;;;;;;;;3.25;3.00;;;;;-142.59;100.00;56100.38;5076948;27;49767;-67
2022/06/19 05:56:18;;;;;;;;;6.75;5.00;;;;;-142.59;100.00;56100.38;5093183;27;50003;-67
2022/06/19 05:58:43;;;;;;;;;5.75;4.00;;;;;-142.59;100.00;56100.38;5097305;27;49577;-67
2022/06/19 06:01:10;;;;;;;;;4.00;3.75;;;;;-142.59;100.00;56100.38;5097081;27;50387;-67
2022/06/19 06:03:36;;;;;;;;;5.50;3.25;;;;;-142.59;100.00;56100.38;5097388;27;49665;-67
2022/06/19 06:06:04;;;;;;;;;6.75;5.75;;;;;-142.59;100.00;56100.38;5097294;27;49968;-67
2022/06/19 06:08:29;;;;;;;;;8.75;5.50;;;;;-142.59;100.00;56100.38;5097507;27;49734;-67
2022/06/19 06:10:55;;;;;;;;;2.50;2.25;;;;;-142.59;100.00;56100.38;5095253;27;50344;-67
2022/06/19 06:13:20;;;;;;;;;5.00;4.50;;;;;-142.59;100.00;56100.38;5078864;27;49818;-67
2022/06/19 06:15:46;;;;;;;;;3.00;3.00;;;;;-142.59;100.00;56100.38;5087860;27;50123;-67
2022/06/19 06:18:12;;;;;;;;;8.25;3.50;;;;;-142.59;100.00;56100.38;5078183;27;49871;-68
2022/06/19 06:20:38;;;;;;;;;7.00;6.25;;;;;-142.59;100.00;56100.38;5076224;27;50564;-67
2022/06/19 06:23:04;;;;;;;;;4.00;4.00;;;;;-142.59;100.00;56100.38;5076919;27;49893;-68
2022/06/19 06:25:29;;;;;;;;;7.25;5.25;;;;;-142.59;100.00;56100.38;5077724;27;49796;-68
2022/06/19 06:27:54;;;;;;;;;4.00;4.00;;;;;-142.59;100.00;56100.38;5078694;27;49705;-67
2022/06/19 06:30:20;;;;;;;;;3.50;3.00;;;;;-142.59;100.00;56100.38;5084312;27;51149;-68
2022/06/19 06:32:45;;;;;;;;;2.00;2.00;;;;;-142.59;100.00;56100.38;5076523;27;49606;-67
2022/06/19 06:35:10;;;;;;;;;7.00;4.25;;;;;-142.59;100.00;56100.38;5089563;27;49814;-68
2022/06/19 06:37:36;;;;;;;;;6.00;3.75;;;;;-142.59;100.00;56100.38;5078692;27;49940;-67
2022/06/19 06:40:05;;;;;;;;;6.00;3.25;;;;;-142.59;100.00;56100.38;5096681;27;50871;-67
2022/06/19 06:42:31;;;;;;;;;1.75;1.75;;;;;-142.59;100.00;56100.38;5096826;27;49957;-67
2022/06/19 06:44:56;;;;;;;;;5.75;4.25;;;;;-142.59;100.00;56100.38;5085764;27;49700;-68
2022/06/19 06:47:21;;;;;;;;;4.25;3.00;;;;;-142.59;100.00;56100.38;5076218;27;49779;-68
2022/06/19 06:49:47;;;;;;;;;5.50;5.25;;;;;-142.59;100.00;56100.38;5089998;27;49693;-68
2022/06/19 06:52:12;;;;;;;;;2.75;2.75;;;;;-142.59;100.00;56100.38;5096589;27;49743;-67
2022/06/19 06:54:39;;;;;;;;;4.50;1.75;;;;;-142.59;100.00;56100.38;5096117;27;49854;-67
2022/06/19 06:57:06;;;;;;;;;2.00;2.00;;;;;-142.59;100.00;56100.38;5092904;27;49894;-67
2022/06/19 06:59:31;;;;;;;;;6.00;2.25;;;;;-142.59;100.00;56100.38;5095198;27;50588;-67
2022/06/19 07:01:57;;;;;;;;;3.00;3.00;;;;;-142.59;100.00;56100.38;5087491;27;49778;-67
2022/06/19 07:04:23;;;;;;;;;4.25;2.75;;;;;-142.59;100.00;56100.38;5095903;27;49756;-67
2022/06/19 07:06:48;;;;;;;;;2.75;2.50;;;;;-142.59;100.00;56100.38;5096933;27;49987;-67
2022/06/19 07:09:13;;;;;;;;;4.25;2.50;;;;;-142.59;100.00;56100.38;5077537;27;50759;-67
2022/06/19 07:11:42;;;;;;;;;5.50;4.00;;;;;-142.59;100.00;56100.38;5075662;28;49747;-67
2022/06/19 07:14:08;;;;;;;;;5.00;2.00;;;;;-142.59;100.00;56100.38;5075954;28;49689;-68
2022/06/19 07:16:34;;;;;;;;;7.00;4.50;;;;;-142.59;100.00;56100.38;5076526;28;49849;-67
2022/06/19 07:19:00;;;;;;;;;4.75;3.25;;;;;-142.59;100.00;56100.38;5075267;27;49744;-68
2022/06/19 07:21:25;;;;;;;;;2.75;2.50;;;;;-142.59;100.00;56100.38;5070061;28;49744;-69
2022/06/19 07:23:50;;;;;;;;;7.50;5.50;;;;;-142.59;100.00;56100.38;5087926;27;49755;-68
2022/06/19 07:26:18;;;;;;;;;4.00;3.50;;;;;-142.59;100.00;56100.38;5096120;27;49843;-68
2022/06/19 07:28:44;;;;;;;;;4.00;3.75;;;;;-142.59;100.00;56100.38;5055211;27;51674;-68
2022/06/19 07:31:10;;;;;;;;;4.75;4.00;;;;;-142.59;100.00;56100.38;5055279;28;49578;-68
2022/06/19 07:33:37;;;;;;;;;2.75;2.75;;;;;-142.59;100.00;56100.38;5037327;28;50078;-67
2022/06/19 07:36:04;;;;;;;;;4.00;3.50;;;;;-142.59;100.00;56100.38;5055410;28;49840;-66
2022/06/19 07:38:30;;;;;;;;;2.25;2.25;;;;;-142.59;100.00;56100.38;5036955;28;51006;-64
2022/06/19 07:40:55;;;;;;;;;1.50;1.50;;;;;-142.59;100.00;56100.38;5093205;27;49627;-72
2022/06/19 07:43:21;;;;;;;;;5.25;1.75;;;;;-142.59;100.00;56100.38;5095811;27;49802;-68
2022/06/19 07:45:46;;;;;;;;;5.75;2.75;;;;;-142.59;100.00;56100.38;5095839;27;49853;-71
2022/06/19 07:54:03;;;;;;;;;4.00;4.00;;;;;22.97;50.93;100914.28;5129078;27;50163;-69
2022/06/19 07:56:29;;;;;;;;;5.00;5.00;;;;;22.32;51.52;100954.34;5111301;27;49808;-73
2022/06/19 07:58:54;;;;;;;;;4.00;4.00;;;;;22.05;53.24;100954.03;5111491;27;49888;-68
2022/06/19 08:01:20;;;;;;;;;5.00;4.00;;;;;21.76;53.88;100999.25;5110978;27;49735;-68
2022/06/19 08:03:46;;;;;;;;;3.75;3.75;;;;;21.33;56.30;101050.88;5111355;27;50021;-71
2022/06/19 08:06:14;;;;;;;;;2.50;2.50;;;;;20.75;58.65;101038.50;5107062;27;49807;-65
2022/06/19 08:08:40;;;;;;;;;4.00;3.75;;;;;20.30;57.73;100966.31;5089163;27;49867;-68
2022/06/19 08:11:05;;;;;;;;;6.25;5.00;;;;;20.00;59.42;100933.91;5087514;27;49710;-69
2022/06/19 08:13:33;;;;;;;;;6.50;5.75;;;;;19.55;70.80;100886.59;5087873;27;49781;-70
2022/06/19 08:16:06;;;;;;;;;8.00;5.75;;;;;18.75;78.15;100845.03;5087945;27;49985;-69
2022/06/19 08:18:33;;;;;;;;;4.25;4.25;;;;;19.01;72.36;100841.16;5087997;27;49555;-70
2022/06/19 08:20:59;;;;;;;;;8.25;6.25;;;;;19.10;71.53;100764.75;5087694;27;49720;-71
2022/06/19 08:23:25;;;;;;;;;5.50;5.25;;;;;19.51;72.59;100754.44;5088256;27;50030;-71
2022/06/19 08:25:50;;;;;;;;;6.00;6.00;;;;;19.95;69.65;100810.53;5090097;27;49570;-71
2022/06/19 08:28:22;;;;;;;;;7.50;5.25;;;;;20.03;66.29;100805.06;5090398;27;49969;-71
2022/06/19 08:30:47;;;;;;;;;6.25;5.00;;;;;19.57;67.64;100762.34;5090028;27;50758;-69
2022/06/19 08:33:13;;;;;;;;;6.25;6.25;;;;;19.86;68.95;100816.00;5090007;27;49813;-71
2022/06/19 08:35:47;;;;;;;;;7.50;7.50;;;;;19.65;68.53;100787.06;5090031;27;49583;-70
2022/06/19 08:38:30;;;;;;;;;5.50;5.50;;;;;19.36;67.87;100737.78;5090365;27;49524;-69
2022/06/19 08:41:01;;;;;;;;;7.75;6.00;;;;;19.55;69.61;100769.44;5089523;27;50334;-75
2022/06/19 08:43:39;;;;;;;;;10.00;8.25;;;;;19.79;67.89;100814.38;5089675;27;49686;-71
2022/06/19 08:46:19;;;;;;;;;8.00;6.50;;;;;19.73;67.16;100806.47;5089354;27;49761;-73
2022/06/19 08:49:06;;;;;;;;;10.00;8.75;;;;;19.58;66.85;100786.25;5089962;27;49766;-74
2022/06/19 08:51:43;;;;;;;;;13.00;10.00;;;;;19.44;66.63;100782.91;5089332;27;50695;-74
2022/06/19 08:54:33;;;;;;;;;10.50;8.75;;;;;19.30;66.94;100795.53;5089468;27;49643;-74
2022/06/19 08:57:14;;;;;;;;;9.75;7.00;;;;;19.16;68.27;100823.22;5089803;27;49740;-75
2022/06/19 09:00:08;;;;;;;;;6.50;3.50;;;;;18.89;67.61;100762.41;5089997;27;49803;-75
2022/06/19 09:02:42;;;;;;;;;11.50;8.00;;;;;19.27;68.88;100807.13;5089640;27;49796;-76
2022/06/19 09:05:38;;;;;;;;;8.50;7.00;;;;;19.42;67.18;100782.94;5086169;27;50167;-71
2022/06/19 09:08:34;;;;;;;;;10.50;9.00;;;;;19.86;66.58;100794.69;5079285;27;49705;-73
2022/06/19 09:11:25;;;;;;;;;8.25;6.25;;;;;20.14;65.11;100804.88;5081574;27;49884;-75
2022/06/19 09:14:10;;;;;;;;;9.00;9.00;;;;;20.42;63.46;100823.91;5081832;27;50419;-74
2022/06/19 09:16:45;;;;;;;;;10.25;10.25;;;;;20.55;62.48;100844.13;5081777;27;49761;-77
2022/06/19 09:19:31;;;;;;;;;10.25;8.50;;;;;20.70;63.21;100848.31;5075685;28;49746;-72
2022/06/19 09:22:15;;;;;;;;;8.50;8.50;;;;;20.78;62.56;100865.06;5076578;27;49974;-72
2022/06/19 09:25:02;;;;;;;;;9.75;9.00;;;;;20.95;61.78;100878.94;5075269;27;51001;-72
2022/06/19 09:27:36;;;;;;;;;9.75;9.00;;;;;21.08;61.96;100890.25;5079058;27;49799;-73
2022/06/19 09:30:08;;;;;;;;;9.25;9.00;;;;;21.18;61.45;100899.81;5076034;28;49666;-74
2022/06/19 09:32:55;;;;;;;;;11.25;10.25;;;;;21.04;60.82;100907.25;5089151;27;49751;-71
2022/06/19 09:35:31;;;;;;;;;8.25;8.25;;;;;21.09;60.31;100924.03;5096069;27;50481;-70
2022/06/19 09:37:59;;;;;;;;;11.00;11.00;;;;;21.18;60.31;100933.66;5092610;27;49774;-71
2022/06/19 09:40:31;;;;;;;;;12.75;11.25;;;;;21.22;59.93;100936.22;5084822;27;49792;-70
2022/06/19 09:43:12;;;;;;;;;15.75;10.00;;;;;21.28;59.64;100921.91;5077864;27;49970;-70
2022/06/19 09:45:47;;;;;;;;;11.50;10.75;;;;;21.53;59.22;100932.97;5074316;28;51242;-70
2022/06/19 09:48:58;;;;;;;;;13.50;10.75;;;;;21.41;58.66;100905.56;5073856;28;49669;-70
2022/06/19 09:51:40;;;;;;;;;12.00;11.50;;;;;21.77;58.54;100934.19;5030004;28;49800;-70
2022/06/19 09:54:10;;;;;;;;;17.75;16.00;;;;;22.10;58.50;100946.84;5075109;28;49883;-69
2022/06/19 09:56:46;;;;;;;;;25.75;21.75;;;;;22.19;57.11;100954.59;5074725;28;50535;-68
2022/06/19 09:59:20;;;;;;;;;38.00;35.75;;;;;22.45;56.83;100937.94;5074876;28;49772;-70
2022/06/19 10:01:56;;;;;;;;;49.75;41.00;;;;;22.72;56.28;100919.41;5075004;28;49788;-70
2022/06/19 10:04:38;;;;;;;;;24.00;24.00;;;;;22.85;55.35;100856.63;5075027;28;49964;-69
2022/06/19 10:07:10;;;;;;;;;21.00;19.75;;;;;23.53;53.73;100931.38;5056516;28;51505;-69
2022/06/19 10:10:13;;;;;;;;;23.00;21.25;;;;;22.30;53.31;100732.41;5074495;28;49840;-69
2022/06/19 10:12:43;;;;;;;;;19.25;17.50;;;;;23.26;53.81;100919.72;4992376;28;49846;-70
2022/06/19 10:15:19;;;;;;;;;23.00;19.00;;;;;22.25;54.78;100798.50;5060883;28;49866;-70
2022/06/19 10:18:16;;;;;;;;;23.50;22.00;;;;;21.78;54.58;100732.88;5074187;28;49772;-69
2022/06/19 10:20:59;;;;;;;;;42.00;35.50;;;;;22.60;55.84;100901.88;5074451;28;49894;-70
2022/06/19 10:23:40;;;;;;;;;33.50;28.25;;;;;22.24;55.63;100855.56;5074810;28;49915;-70
2022/06/19 10:26:36;;;;;;;;;19.00;17.00;;;;;22.42;57.28;100892.53;5057452;28;49617;-70
2022/06/19 10:29:16;;;;;;;;;16.00;14.50;;;;;22.19;57.68;100876.19;5056299;28;51880;-70
2022/06/19 10:32:13;;;;;;;;;19.25;16.00;;;;;21.38;58.87;100792.63;5074503;28;49625;-70
2022/06/19 10:35:17;;;;;;;;;22.00;21.50;;;;;21.70;58.45;100872.00;5074497;28;49612;-70
2022/06/19 10:37:55;;;;;;;;;20.25;20.25;;;;;21.40;59.68;100829.06;5032962;28;49848;-71
2022/06/19 10:40:39;;;;;;;;;26.25;23.00;;;;;21.74;59.75;100868.34;5074119;28;50816;-70
2022/06/19 10:43:23;;;;;;;;;25.00;22.50;;;;;21.76;59.91;100879.00;5074137;28;49802;-69
2022/06/19 10:45:56;;;;;;;;;22.50;22.50;;;;;20.93;60.23;100741.09;5074389;28;49848;-68
2022/06/19 10:50:06;;;;;;;;;20.00;18.25;;;;;20.80;61.85;100756.50;5066972;28;49780;-73
2022/06/19 10:53:12;;;;;;;;;21.25;19.25;;;;;21.57;60.55;100854.50;5049981;28;49797;-72
2022/06/19 10:55:40;;;;;;;;;17.50;15.00;;;;;21.84;60.71;100891.28;5042035;28;50164;-66
2022/06/19 10:58:21;;;;;;;;;17.25;14.75;;;;;21.86;60.94;100900.13;5049918;28;49863;-71
2022/06/19 11:00:54;;;;;;;;;17.25;17.25;;;;;21.28;60.74;100801.75;5049823;28;49732;-72
2022/06/19 11:06:26;;;;;;;;;16.75;16.50;;;;;21.15;59.65;100751.28;5050160;28;49727;-65
2022/06/19 11:09:03;;;;;;;;;14.00;13.00;;;;;20.53;59.40;100677.94;5049273;28;50668;-69
2022/06/19 11:11:30;;;;;;;;;19.00;15.75;;;;;21.63;60.00;100876.63;5048464;28;49873;-65
2022/06/19 11:13:55;;;;;;;;;21.00;19.25;;;;;21.96;59.79;100908.81;5048923;28;49804;-70
2022/06/19 11:16:21;;;;;;;;;17.50;17.00;;;;;21.92;59.90;100907.13;5049527;28;49548;-71
2022/06/19 11:18:50;;;;;;;;;17.50;16.25;;;;;21.98;59.64;100897.16;5049157;28;49920;-67
2022/06/19 11:21:29;;;;;;;;;16.25;15.25;;;;;21.85;58.68;100852.06;5048929;28;49788;-69
2022/06/19 11:24:05;;;;;;;;;16.25;16.25;;;;;21.93;58.41;100834.94;5049249;28;49970;-74
2022/06/19 11:26:43;;;;;;;;;10.25;8.50;;;;;21.59;57.15;100746.69;5048878;28;49531;-72
2022/06/19 11:29:14;;;;;;;;;21.75;18.00;;;;;22.75;57.80;100914.84;5049243;28;50537;-76
2022/06/19 11:31:59;;;;;;;;;14.00;14.00;;;;;22.44;56.17;100881.78;5049431;28;49728;-75